Time;durP1;ratioP1;P1;durP2;ratioP2;P2;SDS_P1;SDS_P2;PMS_P1;PMS_P2;Temp;Humidity;BMP_temperature;BMP_pressure;BME280_temperature;BME280_humidity;BME280_pressure;Samples;Min_cycle;Max_cycle;Signal;HPM_P1;HPM_P2
2023/09/09 00:00:59;;;;;;;8.68;6.28;;;;;;;18.40;93.32;101566.16;5013334;28;20208;-46
2023/09/09 00:03:25;;;;;;;6.90;6.30;;;;;;;18.41;93.13;101559.78;5010856;28;20577;-45
2023/09/09 00:05:51;;;;;;;7.93;5.88;;;;;;;18.33;93.10;101551.22;5010487;28;20237;-47
2023/09/09 00:08:19;;;;;;;8.93;5.97;;;;;;;18.37;92.83;101554.63;5018632;28;20197;-47
2023/09/09 00:10:45;;;;;;;10.52;6.50;;;;;;;18.38;92.26;101553.66;5010573;28;20262;-46
2023/09/09 00:13:11;;;;;;;7.43;6.22;;;;;;;18.32;92.42;101552.16;5015466;28;20203;-46
2023/09/09 00:15:37;;;;;;;6.07;5.55;;;;;;;18.32;92.15;101554.88;5010254;28;20182;-48
2023/09/09 00:18:03;;;;;;;6.32;5.75;;;;;;;18.29;92.07;101550.50;5010317;28;20543;-46
2023/09/09 00:20:33;;;;;;;7.40;6.32;;;;;;;18.22;92.40;101548.28;5010070;28;20627;-48
2023/09/09 00:23:02;;;;;;;8.82;6.47;;;;;;;18.23;92.65;101552.72;5018510;28;20195;-47
2023/09/09 00:25:29;;;;;;;7.20;6.50;;;;;;;18.17;93.08;101543.13;5010308;28;20184;-48
2023/09/09 00:27:54;;;;;;;8.38;6.18;;;;;;;18.09;92.84;101545.41;5018161;28;20215;-48
2023/09/09 00:30:20;;;;;;;7.00;6.07;;;;;;;18.09;93.43;101548.97;5013910;28;20188;-48
2023/09/09 00:32:45;;;;;;;6.78;6.15;;;;;;;18.09;93.12;101540.84;5013340;28;20191;-47
2023/09/09 00:35:11;;;;;;;6.90;6.20;;;;;;;18.25;93.05;101542.66;5011189;28;20219;-46
2023/09/09 00:37:37;;;;;;;6.68;5.88;;;;;;;18.23;92.92;101537.31;5023565;28;20195;-48
2023/09/09 00:40:04;;;;;;;6.15;5.53;;;;;;;18.30;92.16;101535.09;5024096;28;20180;-48
2023/09/09 00:42:29;;;;;;;9.55;6.05;;;;;;;18.30;92.04;101535.09;5008585;28;20197;-50
2023/09/09 00:44:55;;;;;;;6.93;6.07;;;;;;;18.35;91.19;101521.28;5008562;28;20193;-46
2023/09/09 00:47:20;;;;;;;7.57;6.18;;;;;;;18.27;91.39;101538.00;5012655;28;20628;-47
2023/09/09 00:49:46;;;;;;;7.10;6.25;;;;;;;18.25;91.15;101534.50;5021290;28;20234;-48
2023/09/09 00:52:11;;;;;;;7.85;6.03;;;;;;;18.22;91.02;101530.16;5009918;28;20184;-46
2023/09/09 00:54:37;;;;;;;7.05;6.30;;;;;;;18.22;91.31;101540.13;5015043;28;20261;-49
2023/09/09 00:57:04;;;;;;;7.88;6.40;;;;;;;18.21;91.31;101520.25;5020703;28;20178;-48
2023/09/09 00:59:29;;;;;;;7.50;6.13;;;;;;;18.27;91.16;101528.03;5009493;28;20212;-47
2023/09/09 01:01:56;;;;;;;6.88;5.97;;;;;;;18.28;90.51;101529.78;5009780;28;20227;-48
2023/09/09 01:04:22;;;;;;;8.35;6.55;;;;;;;18.26;90.71;101526.28;5017220;28;20590;-48
2023/09/09 01:06:48;;;;;;;6.80;6.18;;;;;;;18.25;90.53;101521.81;5013177;28;20288;-46
2023/09/09 01:09:15;;;;;;;7.60;5.75;;;;;;;18.26;90.40;101525.44;5009608;28;20250;-46
2023/09/09 01:11:41;;;;;;;7.10;6.03;;;;;;;18.19;90.23;101521.31;5009352;28;20279;-46
2023/09/09 01:14:08;;;;;;;7.18;6.47;;;;;;;18.20;90.40;101517.66;5009596;28;20184;-48
2023/09/09 01:16:34;;;;;;;10.02;6.18;;;;;;;18.11;90.36;101522.63;5008209;28;20562;-46
2023/09/09 01:18:59;;;;;;;7.38;5.80;;;;;;;18.19;90.66;101518.59;5007844;28;20180;-45
2023/09/09 01:21:28;;;;;;;6.63;5.93;;;;;;;18.19;90.71;101524.03;5009055;28;20532;-48
2023/09/09 01:23:54;;;;;;;6.97;5.85;;;;;;;18.19;90.36;101521.31;5008001;28;20169;-48
2023/09/09 01:26:20;;;;;;;7.30;6.43;;;;;;;18.17;90.12;101525.94;5009357;28;20520;-45
2023/09/09 01:28:47;;;;;;;8.38;6.57;;;;;;;18.01;90.14;101526.84;5022744;28;20200;-49
2023/09/09 01:31:12;;;;;;;5.90;5.40;;;;;;;17.92;91.15;101522.84;5018195;28;20274;-48
2023/09/09 01:33:39;;;;;;;6.15;5.57;;;;;;;17.76;91.90;101526.50;5022505;28;20543;-46
2023/09/09 01:36:05;;;;;;;6.65;5.47;;;;;;;17.69;92.64;101517.84;5010846;28;20180;-48
2023/09/09 01:38:34;;;;;;;6.78;6.07;;;;;;;17.45;93.35;101529.09;5007718;28;20188;-46
2023/09/09 01:41:03;;;;;;;6.55;5.93;;;;;;;17.26;94.45;101525.66;5016927;28;20241;-47
2023/09/09 01:43:28;;;;;;;7.28;6.50;;;;;;;17.12;96.39;101522.84;5009455;28;20176;-47
2023/09/09 01:45:54;;;;;;;6.47;5.90;;;;;;;17.10;97.54;101528.34;5014861;28;20176;-47
2023/09/09 01:48:20;;;;;;;9.18;6.68;;;;;;;16.91;99.06;101523.06;5010804;28;20255;-47
2023/09/09 01:50:46;;;;;;;8.82;6.03;;;;;;;16.79;99.85;101520.94;5018980;28;20192;-47
2023/09/09 01:53:12;;;;;;;7.30;6.43;;;;;;;16.92;100.00;101529.34;5019320;28;20211;-48
2023/09/09 01:55:38;;;;;;;9.93;7.38;;;;;;;16.92;100.00;101524.78;5008875;28;20176;-49
2023/09/09 01:58:04;;;;;;;7.68;6.85;;;;;;;17.01;100.00;101518.00;5007467;28;20195;-46
2023/09/09 02:00:30;;;;;;;7.88;6.45;;;;;;;17.06;100.00;101522.22;5015738;28;20333;-47
2023/09/09 02:02:56;;;;;;;8.93;6.63;;;;;;;17.08;100.00;101523.00;5008786;28;20180;-47
2023/09/09 02:05:22;;;;;;;7.78;6.97;;;;;;;17.14;100.00;101519.06;5019324;28;20183;-48
2023/09/09 02:07:47;;;;;;;8.48;6.25;;;;;;;17.15;100.00;101518.13;5013240;28;20204;-47
2023/09/09 02:10:13;;;;;;;7.43;6.57;;;;;;;17.00;100.00;101524.38;5015191;28;20694;-48
2023/09/09 02:12:39;;;;;;;7.07;6.38;;;;;;;16.92;100.00;101524.78;5021734;28;20176;-47
2023/09/09 02:15:05;;;;;;;6.25;5.70;;;;;;;16.75;100.00;101522.97;5015157;28;20471;-48
2023/09/09 02:17:31;;;;;;;7.57;6.00;;;;;;;16.47;100.00;101519.00;5006682;28;20172;-45
2023/09/09 02:19:57;;;;;;;6.50;5.90;;;;;;;16.35;100.00;101524.16;5024124;28;20179;-46
2023/09/09 02:22:23;;;;;;;6.53;5.88;;;;;;;16.32;100.00;101530.59;5020183;28;20216;-48
2023/09/09 02:24:56;;;;;;;6.78;6.15;;;;;;;16.13;100.00;101524.38;5018249;28;20176;-47
2023/09/09 02:27:22;;;;;;;6.57;5.75;;;;;;;16.03;100.00;101532.97;5024063;28;20747;-48
2023/09/09 02:29:47;;;;;;;7.25;6.43;;;;;;;16.18;100.00;101522.31;5016301;28;20659;-46
2023/09/09 02:32:13;;;;;;;15.10;6.40;;;;;;;16.15;100.00;101528.75;5010934;28;20184;-48
2023/09/09 02:34:38;;;;;;;7.05;6.22;;;;;;;16.19;100.00;101526.78;5012532;28;20267;-48
2023/09/09 02:37:17;;;;;;;9.45;7.68;;;;;;;16.16;100.00;101524.22;5020107;28;20638;-48
2023/09/09 02:39:46;;;;;;;10.30;7.55;;;;;;;16.25;100.00;101529.19;5013937;28;20635;-49
2023/09/09 02:42:14;;;;;;;10.43;7.55;;;;;;;16.28;100.00;101515.50;5022048;28;20270;-46
2023/09/09 02:44:40;;;;;;;10.63;7.55;;;;;;;16.35;100.00;101514.22;5012315;28;20169;-50
2023/09/09 02:47:07;;;;;;;10.73;7.72;;;;;;;16.42;100.00;101510.25;5010678;28;20235;-48
2023/09/09 02:49:34;;;;;;;7.47;6.78;;;;;;;16.44;100.00;101502.94;4980406;28;20239;-47
2023/09/09 02:52:00;;;;;;;7.30;6.60;;;;;;;16.36;100.00;101504.28;5017359;28;20196;-46
2023/09/09 02:54:25;;;;;;;9.98;6.05;;;;;;;16.30;100.00;101497.34;5011911;28;20224;-48
2023/09/09 02:56:51;;;;;;;8.93;6.43;;;;;;;16.25;100.00;101507.53;5010650;28;20177;-49
2023/09/09 02:59:16;;;;;;;6.30;5.70;;;;;;;16.24;100.00;101508.47;5011817;28;20184;-46
2023/09/09 03:01:42;;;;;;;7.78;6.25;;;;;;;16.11;100.00;101515.47;5010120;28;20694;-47
2023/09/09 03:04:08;;;;;;;8.77;6.90;;;;;;;15.94;100.00;101509.09;5010768;28;20525;-48
2023/09/09 03:06:34;;;;;;;8.00;7.05;;;;;;;15.70;100.00;101515.66;5002396;28;20282;-46
2023/09/09 03:09:00;;;;;;;7.70;6.90;;;;;;;15.61;100.00;101517.88;5014372;28;20279;-47
2023/09/09 03:11:26;;;;;;;8.57;7.18;;;;;;;15.51;100.00;101510.28;5012883;28;20570;-48
2023/09/09 03:13:52;;;;;;;12.00;7.32;;;;;;;15.38;100.00;101516.25;5022114;28;20180;-47
2023/09/09 03:16:17;;;;;;;9.32;7.18;;;;;;;15.42;100.00;101517.00;5012933;28;20187;-47
2023/09/09 03:18:43;;;;;;;7.78;6.97;;;;;;;15.32;100.00;101512.97;5010381;28;20563;-48
2023/09/09 03:21:10;;;;;;;7.30;5.75;;;;;;;15.45;100.00;101524.94;5017354;28;20261;-47
2023/09/09 03:23:36;;;;;;;7.47;6.88;;;;;;;15.32;100.00;101519.25;5018697;28;20640;-44
2023/09/09 03:26:01;;;;;;;7.47;6.72;;;;;;;15.36;100.00;101510.06;5011397;28;20180;-48
2023/09/09 03:28:27;;;;;;;8.70;6.90;;;;;;;15.22;100.00;101513.41;5012154;28;20214;-47
2023/09/09 03:30:54;;;;;;;7.60;7.00;;;;;;;15.20;100.00;101507.22;5016360;28;20267;-47
2023/09/09 03:33:22;;;;;;;7.90;6.65;;;;;;;15.17;100.00;101514.56;5022564;28;20494;-46
2023/09/09 03:35:48;;;;;;;6.63;6.03;;;;;;;15.32;100.00;101511.13;5011171;28;20227;-46
2023/09/09 03:38:14;;;;;;;7.97;7.28;;;;;;;15.27;100.00;101515.88;5011627;28;20603;-48
2023/09/09 03:40:42;;;;;;;8.95;6.60;;;;;;;15.20;100.00;101520.69;5023357;28;20279;-47
2023/09/09 03:43:07;;;;;;;8.20;6.40;;;;;;;15.18;100.00;101513.63;5021308;28;20246;-46
2023/09/09 03:45:32;;;;;;;7.60;6.88;;;;;;;15.09;100.00;101517.63;5019532;28;20188;-47
2023/09/09 03:47:59;;;;;;;6.97;6.22;;;;;;;15.19;100.00;101513.53;5011184;28;20287;-47
2023/09/09 03:50:24;;;;;;;6.25;5.75;;;;;;;15.23;100.00;101514.28;5011160;28;20196;-46
2023/09/09 03:52:50;;;;;;;6.65;6.05;;;;;;;15.11;100.00;101509.44;5010489;28;20204;-46
2023/09/09 03:55:17;;;;;;;7.90;6.22;;;;;;;15.12;100.00;101509.38;5013006;28;20173;-47
2023/09/09 03:57:43;;;;;;;8.55;7.35;;;;;;;15.05;100.00;101510.63;4992472;28;20311;-47
2023/09/09 04:00:10;;;;;;;6.80;6.18;;;;;;;15.07;100.00;101511.44;4997225;28;20742;-46
2023/09/09 04:02:38;;;;;;;7.18;6.57;;;;;;;14.98;100.00;101512.72;5022362;28;20168;-48
2023/09/09 04:05:07;;;;;;;7.32;6.63;;;;;;;14.99;100.00;101513.59;5022053;28;20181;-47
2023/09/09 04:07:35;;;;;;;8.05;7.15;;;;;;;14.77;100.00;101519.94;5008498;28;20279;-48
2023/09/09 04:10:05;;;;;;;7.32;6.63;;;;;;;14.79;100.00;101520.75;5009501;28;20183;-45
2023/09/09 04:12:31;;;;;;;8.35;6.93;;;;;;;14.78;100.00;101521.72;5017610;28;20164;-46
2023/09/09 04:14:57;;;;;;;8.48;7.18;;;;;;;14.64;100.00;101516.06;5009050;28;20670;-46
2023/09/09 04:17:23;;;;;;;7.50;6.60;;;;;;;14.67;100.00;101523.13;5010318;28;20538;-48
2023/09/09 04:19:49;;;;;;;7.20;6.50;;;;;;;14.73;100.00;101521.03;5015970;28;20195;-46
2023/09/09 04:22:14;;;;;;;9.02;7.22;;;;;;;14.69;100.00;101519.41;5009220;28;20173;-47
2023/09/09 04:24:40;;;;;;;7.20;6.60;;;;;;;14.71;100.00;101513.97;5009107;28;20524;-46
2023/09/09 04:27:05;;;;;;;8.65;7.00;;;;;;;14.63;100.00;101507.09;5009558;28;20235;-46
2023/09/09 04:29:31;;;;;;;10.15;7.15;;;;;;;14.50;100.00;101513.94;5018536;28;20187;-45
2023/09/09 04:31:58;;;;;;;8.32;7.15;;;;;;;14.58;100.00;101509.13;5009074;28;20206;-46
2023/09/09 04:34:24;;;;;;;8.18;7.40;;;;;;;14.53;100.00;101516.50;5008503;28;20176;-47
2023/09/09 04:36:50;;;;;;;7.65;6.85;;;;;;;14.42;100.00;101513.38;5008699;28;20603;-47
2023/09/09 04:39:17;;;;;;;8.45;7.70;;;;;;;14.40;100.00;101507.19;5009964;28;20278;-47
2023/09/09 04:41:43;;;;;;;8.48;7.68;;;;;;;14.36;100.00;101519.03;5010116;28;20200;-47
2023/09/09 04:44:10;;;;;;;7.60;6.85;;;;;;;14.32;100.00;101512.03;5008514;28;20617;-45
2023/09/09 04:46:37;;;;;;;7.90;7.15;;;;;;;14.31;100.00;101508.47;5011080;28;20263;-47
2023/09/09 04:49:05;;;;;;;8.10;7.22;;;;;;;14.33;100.00;101503.88;5022261;28;20676;-45
2023/09/09 04:51:31;;;;;;;9.23;7.18;;;;;;;14.36;100.00;101503.72;5004418;28;20324;-46
2023/09/09 04:53:59;;;;;;;7.90;7.10;;;;;;;14.28;100.00;101521.19;5008105;28;20682;-48
2023/09/09 04:56:25;;;;;;;8.70;7.55;;;;;;;14.33;100.00;101521.88;5008110;28;20181;-47
2023/09/09 04:58:51;;;;;;;8.00;7.13;;;;;;;14.43;100.00;101512.47;5016074;28;20172;-47
2023/09/09 05:01:16;;;;;;;9.05;7.55;;;;;;;14.32;100.00;101512.91;5015971;28;20210;-48
2023/09/09 05:03:42;;;;;;;9.38;7.72;;;;;;;14.28;100.00;101524.78;5026167;28;20255;-48
2023/09/09 05:06:08;;;;;;;8.38;7.57;;;;;;;14.36;100.00;101519.91;5014391;28;20207;-47
2023/09/09 05:08:34;;;;;;;9.88;7.28;;;;;;;14.42;100.00;101518.78;5009260;28;20629;-48
2023/09/09 05:11:00;;;;;;;7.20;6.53;;;;;;;14.48;100.00;101528.44;5008006;28;20204;-47
2023/09/09 05:13:27;;;;;;;9.52;8.43;;;;;;;14.39;100.00;101518.94;5008821;28;20196;-47
2023/09/09 05:15:54;;;;;;;7.65;6.95;;;;;;;14.44;100.00;101522.28;5014693;28;20197;-47
2023/09/09 05:18:20;;;;;;;8.20;7.50;;;;;;;14.48;100.00;101521.22;5009125;28;20208;-46
2023/09/09 05:20:45;;;;;;;8.13;7.40;;;;;;;14.57;100.00;101517.28;5008087;28;20345;-47
2023/09/09 05:23:11;;;;;;;8.90;7.82;;;;;;;14.68;100.00;101514.97;5007698;28;20223;-47
2023/09/09 05:25:36;;;;;;;8.25;7.43;;;;;;;14.69;100.00;101516.72;5009384;28;20178;-47
2023/09/09 05:28:02;;;;;;;7.75;7.13;;;;;;;14.91;100.00;101510.34;5007921;28;20307;-48
2023/09/09 05:30:28;;;;;;;8.60;7.65;;;;;;;15.02;100.00;101511.63;5009478;28;20239;-47
2023/09/09 05:32:53;;;;;;;11.40;8.93;;;;;;;15.23;100.00;101507.06;5013583;28;20164;-45
2023/09/09 05:35:18;;;;;;;8.10;7.28;;;;;;;15.57;100.00;101507.28;5010205;28;20700;-45
2023/09/09 05:37:45;;;;;;;10.32;8.75;;;;;;;15.54;100.00;101513.69;5007237;28;20179;-44
2023/09/09 05:40:11;;;;;;;9.73;8.48;;;;;;;15.47;100.00;101514.94;5014457;28;20673;-46
2023/09/09 05:42:40;;;;;;;9.15;7.75;;;;;;;15.79;100.00;101507.16;5024502;28;20191;-44
2023/09/09 05:45:11;;;;;;;9.88;8.88;;;;;;;16.02;100.00;101504.16;5011902;28;20542;-44
2023/09/09 05:47:38;;;;;;;8.60;7.68;;;;;;;16.44;100.00;101502.94;4990849;28;20208;-44
2023/09/09 05:50:05;;;;;;;11.05;8.00;;;;;;;16.89;100.00;101504.19;5011014;28;20267;-44
2023/09/09 05:52:31;;;;;;;8.07;7.35;;;;;;;17.10;100.00;101501.28;5006000;28;20660;-42
2023/09/09 05:54:57;;;;;;;9.38;8.35;;;;;;;17.24;100.00;101504.06;4991648;28;20192;-46
2023/09/09 05:57:23;;;;;;;8.23;7.47;;;;;;;17.52;100.00;101499.84;5000972;28;20180;-45
2023/09/09 05:59:50;;;;;;;10.65;7.43;;;;;;;17.72;100.00;101504.13;5024594;23;20213;-48
2023/09/09 06:02:17;;;;;;;7.70;6.93;;;;;;;18.01;100.00;101496.16;4977315;28;20185;-46
2023/09/09 06:04:42;;;;;;;13.13;7.03;;;;;;;18.31;100.00;101488.91;4976024;28;20188;-47
2023/09/09 06:07:08;;;;;;;7.97;7.28;;;;;;;18.76;99.11;101488.91;4996015;28;20212;-46
2023/09/09 06:09:33;;;;;;;7.25;6.55;;;;;;;19.08;96.20;101480.59;4977931;28;20179;-47
2023/09/09 06:12:00;;;;;;;9.82;7.88;;;;;;;19.26;92.52;101479.44;4992604;28;20610;-44
2023/09/09 06:14:26;;;;;;;8.30;6.82;;;;;;;19.60;90.47;101466.34;4993635;28;20180;-47
2023/09/09 06:16:52;;;;;;;7.10;6.50;;;;;;;19.79;88.09;101459.72;4987502;28;20631;-47
2023/09/09 06:19:17;;;;;;;7.07;6.38;;;;;;;19.76;86.63;101468.94;4991392;28;20181;-46
2023/09/09 06:21:43;;;;;;;9.07;6.47;;;;;;;20.10;86.34;101467.56;4997503;28;20627;-46
2023/09/09 06:24:08;;;;;;;6.93;6.20;;;;;;;20.10;85.96;101469.41;4994007;28;20199;-46
2023/09/09 06:26:35;;;;;;;8.02;7.13;;;;;;;20.27;85.40;101465.50;4977392;28;20483;-47
2023/09/09 06:29:01;;;;;;;7.53;6.53;;;;;;;20.17;85.16;101477.03;4990411;28;20670;-47
2023/09/09 06:31:27;;;;;;;8.52;6.95;;;;;;;20.47;83.16;101469.59;4972185;28;20197;-46
2023/09/09 06:33:52;;;;;;;8.98;7.18;;;;;;;20.46;81.57;101463.25;4993005;28;20200;-47
2023/09/09 06:36:20;;;;;;;7.75;7.05;;;;;;;20.70;80.36;101457.09;4993247;28;20168;-45
2023/09/09 06:38:46;;;;;;;7.38;6.63;;;;;;;20.78;79.57;101452.00;4994442;28;20177;-47
2023/09/09 06:41:13;;;;;;;8.88;6.72;;;;;;;20.71;78.27;101451.56;4995115;28;20582;-47
2023/09/09 06:43:39;;;;;;;7.75;7.05;;;;;;;20.82;77.67;101439.91;4993804;28;20196;-45
2023/09/09 06:46:04;;;;;;;7.03;6.43;;;;;;;21.23;77.24;101449.66;4993290;28;20926;-45
2023/09/09 06:48:30;;;;;;;7.57;6.00;;;;;;;21.49;76.75;101455.91;4998653;28;20292;-46
2023/09/09 06:50:55;;;;;;;6.95;5.80;;;;;;;21.65;75.15;101436.56;4995753;28;20283;-48
2023/09/09 06:53:22;;;;;;;8.25;6.70;;;;;;;21.74;74.22;101432.28;5000093;28;20186;-47
2023/09/09 06:55:48;;;;;;;7.10;6.40;;;;;;;21.43;73.99;101434.59;5003322;28;20208;-46
2023/09/09 06:58:14;;;;;;;8.38;6.30;;;;;;;21.51;74.44;101436.72;5002859;28;20181;-43
2023/09/09 07:00:40;;;;;;;6.78;6.20;;;;;;;21.90;74.21;101437.44;5004260;28;20217;-43
2023/09/09 07:03:07;;;;;;;7.13;5.82;;;;;;;22.27;73.23;101431.88;5000426;28;20204;-43
2023/09/09 07:05:33;;;;;;;7.68;6.32;;;;;;;22.57;72.42;101423.16;4993480;28;20207;-44
2023/09/09 07:07:59;;;;;;;7.63;6.38;;;;;;;22.33;70.54;101418.63;5002654;28;20346;-41
2023/09/09 07:10:25;;;;;;;7.20;6.22;;;;;;;22.60;70.80;101414.69;5005615;28;20602;-44
2023/09/09 07:12:50;;;;;;;10.07;5.88;;;;;;;22.41;70.64;101427.09;5003559;28;20176;-42
2023/09/09 07:15:16;;;;;;;8.15;6.47;;;;;;;22.84;69.79;101418.19;5005590;28;20185;-41
2023/09/09 07:17:48;;;;;;;7.05;6.20;;;;;;;22.99;68.92;101417.94;5002170;28;20184;-40
2023/09/09 07:20:14;;;;;;;8.57;6.55;;;;;;;22.77;70.00;101425.13;5001730;28;20219;-41
2023/09/09 07:22:40;;;;;;;6.93;6.32;;;;;;;23.00;68.54;101416.97;5005899;28;20263;-44
2023/09/09 07:25:06;;;;;;;7.07;6.38;;;;;;;22.77;68.48;101421.56;4999980;28;20285;-45
2023/09/09 07:27:32;;;;;;;7.15;6.45;;;;;;;22.85;68.65;101424.53;5003046;28;20310;-44
2023/09/09 07:29:57;;;;;;;9.00;6.45;;;;;;;23.22;68.27;101422.44;5002193;28;20266;-40
2023/09/09 07:32:23;;;;;;;6.60;5.95;;;;;;;23.53;67.93;101419.03;5004280;28;20180;-42
2023/09/09 07:34:49;;;;;;;6.63;6.03;;;;;;;23.35;67.08;101405.00;5002289;28;20528;-43
2023/09/09 07:37:15;;;;;;;6.85;6.25;;;;;;;23.67;67.22;101415.13;5001200;28;20171;-41
2023/09/09 07:39:50;;;;;;;6.80;6.20;;;;;;;23.85;65.84;101400.78;5003737;28;20180;-45
2023/09/09 07:42:16;;;;;;;9.18;6.22;;;;;;;24.10;65.86;101401.41;5001397;28;20180;-40
2023/09/09 07:44:43;;;;;;;6.72;5.97;;;;;;;24.16;65.49;101400.00;4998053;28;20667;-40
2023/09/09 07:47:09;;;;;;;7.85;6.35;;;;;;;24.01;65.08;101400.34;5004435;28;20275;-42
2023/09/09 07:49:35;;;;;;;9.98;6.00;;;;;;;24.19;66.05;101402.47;4985839;28;20204;-42
2023/09/09 07:52:04;;;;;;;6.80;6.20;;;;;;;23.92;65.71;101395.66;5004502;28;20586;-40
2023/09/09 07:54:31;;;;;;;8.70;6.35;;;;;;;24.57;65.50;101399.13;4998193;28;20165;-41
2023/09/09 07:56:58;;;;;;;6.50;5.90;;;;;;;24.93;63.89;101391.38;5005064;28;20297;-41
2023/09/09 07:59:24;;;;;;;6.68;5.88;;;;;;;25.12;62.87;101386.94;4999080;28;20211;-42
2023/09/09 08:01:50;;;;;;;6.82;5.88;;;;;;;25.08;62.94;101381.75;4997411;28;20192;-44
2023/09/09 08:04:15;;;;;;;9.57;5.75;;;;;;;24.79;63.55;101384.38;5003554;28;20176;-42
2023/09/09 08:06:41;;;;;;;8.38;6.30;;;;;;;25.33;63.59;101390.50;4998534;28;20226;-42
2023/09/09 08:09:06;;;;;;;6.90;5.70;;;;;;;25.47;62.07;101379.16;4998348;28;20607;-45
2023/09/09 08:11:32;;;;;;;9.05;5.95;;;;;;;25.40;62.91;101385.31;4991595;28;20588;-41
2023/09/09 08:13:57;;;;;;;6.28;5.70;;;;;;;25.70;61.63;101382.47;4983851;28;20180;-41
2023/09/09 08:16:23;;;;;;;9.52;5.97;;;;;;;25.44;60.87;101365.69;5001665;28;20191;-44
2023/09/09 08:18:49;;;;;;;8.60;5.93;;;;;;;25.57;60.84;101375.53;5000666;28;20673;-45
2023/09/09 08:21:14;;;;;;;6.82;6.22;;;;;;;25.60;61.24;101369.75;4996373;28;20320;-42
2023/09/09 08:23:40;;;;;;;6.68;5.65;;;;;;;25.19;61.89;101378.06;5001688;28;20189;-42
2023/09/09 08:26:05;;;;;;;6.57;6.07;;;;;;;25.58;62.23;101396.47;5001427;28;20246;-45
2023/09/09 08:28:31;;;;;;;10.25;5.72;;;;;;;25.77;61.81;101385.50;4998133;28;20200;-42
2023/09/09 08:31:00;;;;;;;7.43;6.00;;;;;;;25.64;61.62;101382.19;4997689;28;20208;-42
2023/09/09 08:33:26;;;;;;;10.35;6.03;;;;;;;25.76;61.63;101383.78;5001002;28;20191;-41
2023/09/09 08:36:00;;;;;;;5.90;5.40;;;;;;;25.62;61.57;101392.44;5000468;28;20524;-41
2023/09/09 08:38:26;;;;;;;6.32;5.43;;;;;;;26.13;60.98;101385.81;5001214;28;20164;-42
2023/09/09 08:41:28;;;;;;;6.15;5.65;;;;;;;25.83;61.32;101387.69;4981119;28;20219;-43
2023/09/09 08:44:12;;;;;;;6.60;6.00;;;;;;;26.12;60.82;101386.81;4978028;28;20203;-44
2023/09/09 08:46:38;;;;;;;6.63;5.50;;;;;;;26.17;60.49;101376.25;4981737;28;20185;-43
2023/09/09 08:49:07;;;;;;;6.10;5.50;;;;;;;26.33;59.99;101372.91;4996761;28;20681;-43
2023/09/09 08:51:48;;;;;;;7.82;6.18;;;;;;;26.61;60.62;101381.22;4980148;28;20203;-43
2023/09/09 08:54:15;;;;;;;6.38;5.50;;;;;;;26.46;60.36;101384.44;4989722;28;20188;-44
2023/09/09 08:56:41;;;;;;;5.90;5.32;;;;;;;26.48;60.47;101385.16;4996705;28;20228;-43
2023/09/09 08:59:08;;;;;;;9.43;5.30;;;;;;;26.12;60.12;101372.22;4995637;28;20524;-43
2023/09/09 09:01:35;;;;;;;6.88;5.85;;;;;;;26.80;59.10;101361.06;4994157;28;20757;-43
2023/09/09 09:04:01;;;;;;;7.70;5.53;;;;;;;26.81;58.34;101365.56;4990465;28;20620;-43
2023/09/09 09:06:27;;;;;;;8.63;5.65;;;;;;;26.45;59.06;101371.69;4995903;28;20251;-46
2023/09/09 09:08:52;;;;;;;6.10;5.10;;;;;;;26.71;59.56;101374.69;4997527;28;20224;-43
2023/09/09 09:11:20;;;;;;;6.72;5.97;;;;;;;26.57;59.64;101377.09;4993439;28;20255;-43
2023/09/09 09:13:47;;;;;;;6.28;5.68;;;;;;;26.41;59.90;101395.00;4998593;28;20210;-44
2023/09/09 09:16:13;;;;;;;7.10;5.65;;;;;;;26.70;58.81;101375.72;5000207;28;20187;-43
2023/09/09 09:18:38;;;;;;;7.35;5.90;;;;;;;26.71;59.12;101373.81;4994167;28;20185;-42
2023/09/09 09:21:08;;;;;;;9.82;5.40;;;;;;;26.73;58.28;101359.94;4993783;28;20227;-46
2023/09/09 09:23:40;;;;;;;5.97;5.40;;;;;;;26.76;57.38;101352.22;4994232;28;20546;-47
2023/09/09 09:26:22;;;;;;;7.53;5.30;;;;;;;27.24;57.73;101361.28;4991636;28;20207;-43
2023/09/09 09:28:48;;;;;;;7.10;5.35;;;;;;;27.29;57.19;101353.44;4995620;28;20239;-45
2023/09/09 09:31:25;;;;;;;7.47;5.47;;;;;;;27.10;57.42;101354.38;4988265;28;20294;-43
2023/09/09 09:33:52;;;;;;;8.02;5.22;;;;;;;27.15;59.01;101378.69;4996043;28;20259;-44
2023/09/09 09:36:20;;;;;;;8.60;5.03;;;;;;;27.28;57.31;101357.19;4999276;28;20185;-42
2023/09/09 09:38:47;;;;;;;6.25;5.30;;;;;;;27.46;57.26;101349.84;4995882;28;20251;-42
2023/09/09 09:41:14;;;;;;;5.28;4.78;;;;;;;27.65;57.54;101356.22;4997814;28;20203;-45
2023/09/09 09:43:40;;;;;;;5.60;5.05;;;;;;;27.91;55.24;101332.38;4994562;28;20185;-43
2023/09/09 09:46:21;;;;;;;7.20;5.13;;;;;;;27.58;55.88;101328.44;4994524;28;20712;-44
2023/09/09 09:48:48;;;;;;;11.35;5.68;;;;;;;27.90;55.96;101338.03;4991051;28;20685;-46
2023/09/09 09:51:14;;;;;;;6.18;5.28;;;;;;;26.76;57.48;101345.88;4999105;28;20590;-45
2023/09/09 09:53:48;;;;;;;5.88;5.22;;;;;;;26.44;58.50;101341.66;4996104;28;20184;-44
2023/09/09 09:56:17;;;;;;;7.00;5.50;;;;;;;26.74;59.82;101368.00;4997708;28;20191;-44
2023/09/09 09:58:47;;;;;;;7.22;5.60;;;;;;;26.06;59.17;101359.94;4997617;28;20179;-45
2023/09/09 10:01:13;;;;;;;7.00;5.20;;;;;;;25.54;59.70;101362.09;4997085;28;20279;-42
2023/09/09 10:03:55;;;;;;;6.55;5.43;;;;;;;25.92;60.69;101377.72;4997523;28;20292;-44
2023/09/09 10:06:33;;;;;;;6.00;5.40;;;;;;;26.22;59.09;101362.97;4992581;28;20650;-48
2023/09/09 10:09:19;;;;;;;8.60;5.30;;;;;;;26.64;59.24;101358.97;4990746;28;20231;-47
2023/09/09 10:11:59;;;;;;;7.88;5.45;;;;;;;26.78;58.94;101339.22;4996137;28;20262;-44
2023/09/09 10:14:26;;;;;;;6.43;5.07;;;;;;;26.39;58.89;101336.59;4995613;28;20188;-47
2023/09/09 10:16:53;;;;;;;6.63;5.70;;;;;;;26.16;58.70;101336.06;4989450;28;20227;-47
2023/09/09 10:19:19;;;;;;;6.57;5.38;;;;;;;26.13;58.37;101335.50;4977954;28;20494;-45
2023/09/09 10:21:47;;;;;;;6.82;5.22;;;;;;;26.63;57.98;101333.38;4992892;28;20208;-44
2023/09/09 10:24:15;;;;;;;7.88;5.32;;;;;;;26.92;58.97;101348.84;4997438;28;20757;-44
2023/09/09 10:26:41;;;;;;;7.00;5.80;;;;;;;26.68;58.68;101347.50;4990843;28;20652;-43
2023/09/09 10:29:08;;;;;;;8.90;5.22;;;;;;;26.68;58.74;101342.00;4995450;28;20207;-43
2023/09/09 10:31:35;;;;;;;7.82;5.38;;;;;;;26.76;59.37;101346.75;4988579;28;20228;-45
2023/09/09 10:34:02;;;;;;;6.78;4.20;;;;;;;27.50;56.05;101329.22;4999399;28;20184;-44
2023/09/09 10:36:33;;;;;;;8.40;5.30;;;;;;;27.38;57.00;101329.63;4997738;28;20279;-43
2023/09/09 10:38:59;;;;;;;8.77;4.97;;;;;;;27.67;56.90;101323.88;4999585;28;20165;-43
2023/09/09 10:41:25;;;;;;;5.53;5.03;;;;;;;27.12;56.43;101319.34;4996972;28;20452;-48
2023/09/09 10:43:50;;;;;;;5.18;4.35;;;;;;;27.81;55.39;101308.66;5002095;28;20309;-42
2023/09/09 10:46:16;;;;;;;4.55;4.13;;;;;;;28.05;53.32;101275.81;5000526;28;20227;-43
2023/09/09 10:48:44;;;;;;;10.98;4.47;;;;;;;28.32;52.41;101273.94;4999894;28;20207;-47
2023/09/09 10:51:13;;;;;;;6.70;4.60;;;;;;;28.69;52.27;101268.09;4995961;28;20217;-46
2023/09/09 10:53:38;;;;;;;4.47;4.00;;;;;;;29.04;52.16;101270.78;4999460;28;20234;-45
2023/09/09 10:56:12;;;;;;;4.50;3.95;;;;;;;29.03;50.37;101242.34;4999598;28;20192;-43
2023/09/09 10:58:38;;;;;;;5.65;4.28;;;;;;;28.88;50.71;101250.41;4995038;28;20186;-47
2023/09/09 11:01:08;;;;;;;4.28;3.92;;;;;;;28.96;50.51;101244.91;5002451;28;20712;-45
2023/09/09 11:03:53;;;;;;;7.80;4.28;;;;;;;28.62;50.23;101239.44;4998669;28;20187;-43
2023/09/09 11:06:25;;;;;;;7.00;3.95;;;;;;;29.03;50.24;101239.56;4998941;28;20195;-44
2023/09/09 11:08:56;;;;;;;6.82;4.10;;;;;;;29.12;50.23;101252.38;5000011;28;20617;-51
2023/09/09 11:11:25;;;;;;;4.18;3.78;;;;;;;28.99;49.73;101246.47;5001674;28;20196;-46
2023/09/09 11:13:59;;;;;;;4.75;3.90;;;;;;;29.11;49.94;101247.91;4998590;28;20288;-43
2023/09/09 11:16:28;;;;;;;7.18;4.10;;;;;;;28.99;49.37;101238.19;4996248;28;20172;-40
2023/09/09 11:18:55;;;;;;;7.97;4.15;;;;;;;28.91;49.21;101235.44;4983130;28;20184;-42
2023/09/09 11:21:24;;;;;;;4.88;4.20;;;;;;;29.31;49.47;101244.81;4999479;28;20632;-40